Time;durP1;ratioP1;P1;durP2;ratioP2;P2;SDS_P1;SDS_P2;PMS_P1;PMS_P2;Temp;Humidity;BMP_temperature;BMP_pressure;BME280_temperature;BME280_humidity;BME280_pressure;Samples;Min_cycle;Max_cycle;Signal;HPM_P1;HPM_P2
2022/03/03 00:01:28;842564.00;2.81;1455.46;518.00;0.00;1.52;;;;;8.50;1.00;;;;;;2268396;61;1461;-88
2022/03/03 00:04:00;715489.00;2.38;1234.11;0.00;0.00;0.62;;;;;8.60;1.00;;;;;;2268512;61;1584;-88
2022/03/03 00:06:33;741694.00;2.47;1279.62;0.00;0.00;0.62;;;;;8.70;1.00;;;;;;2268443;61;1445;-89
2022/03/03 00:09:07;842167.00;2.81;1454.76;0.00;0.00;0.62;;;;;8.80;1.00;;;;;;2268453;61;2015;-88
2022/03/03 00:11:40;1069438.00;3.56;1855.85;68261.00;0.23;118.76;;;;;9.10;1.00;;;;;;2268465;61;1579;-88
2022/03/03 00:14:16;2553853.00;8.51;4830.52;239919.00;0.80;414.61;;;;;9.20;1.00;;;;;;2268279;61;1548;-88
2022/03/03 00:16:49;1937315.00;6.46;3496.40;220969.00;0.74;382.01;;;;;9.30;1.00;;;;;;2268371;61;1559;-89
2022/03/03 00:19:23;979639.00;3.27;1696.44;94006.00;0.31;163.22;;;;;9.50;1.00;;;;;;2268443;61;1484;-88
2022/03/03 00:21:50;770200.00;2.57;1329.20;28270.00;0.09;49.59;;;;;9.60;1.00;;;;;;2268332;61;1437;-89
2022/03/03 00:24:20;660082.00;2.20;1138.08;0.00;0.00;0.62;;;;;9.90;1.00;;;;;;2268379;61;1233;-88
2022/03/03 00:26:51;1017676.00;3.39;1763.80;31572.00;0.11;55.30;;;;;9.80;1.00;;;;;;2268298;61;1495;-89
2022/03/03 00:29:21;2276783.00;7.59;4209.01;183132.00;0.61;316.88;;;;;10.00;1.00;;;;;;2268370;61;2021;-90
2022/03/03 00:31:55;1725163.00;5.75;3074.42;212673.00;0.71;367.74;;;;;10.20;1.00;;;;;;2268353;61;1596;-89
2022/03/03 00:34:26;700231.00;2.33;1207.64;99918.00;0.33;173.43;;;;;10.30;1.00;;;;;;2268421;61;1454;-88
2022/03/03 00:36:57;597418.00;1.99;1029.76;0.00;0.00;0.62;;;;;10.40;1.00;;;;;;2268379;61;1594;-90
2022/03/03 00:39:28;122191624.00;407.31;73909536.00;0.00;0.00;0.62;;;;;10.10;1.00;;;;;;2268366;61;1461;-90
2022/03/03 00:41:58;1113052.00;3.71;1933.78;21014.00;0.07;37.03;;;;;9.60;1.00;;;;;;2268338;61;1567;-89
2022/03/03 00:47:19;2106089.00;7.02;3844.48;219898.00;0.73;380.17;;;;;9.70;1.00;;;;;;2268027;61;1577;-89
2022/03/03 00:50:03;1413918.00;4.71;2482.16;148747.00;0.50;257.65;;;;;9.50;1.00;;;;;;2268335;61;1584;-90
2022/03/03 00:52:41;135436800.00;451.46;100673888.00;130749.00;0.44;226.62;;;;;9.30;1.00;;;;;;2268287;61;1641;-89
2022/03/03 00:55:14;831182.00;2.77;1435.56;95457.00;0.32;165.73;;;;;9.30;1.00;;;;;;2268330;61;1603;-88
2022/03/03 01:00:27;450675.00;1.50;776.94;0.00;0.00;0.62;;;;;9.20;1.00;;;;;;2268009;61;1557;-89
2022/03/03 01:02:59;1333679.00;4.45;2333.88;109860.00;0.37;190.59;;;;;9.00;1.00;;;;;;2268231;61;1605;-89
2022/03/03 01:05:29;2512531.00;8.38;4735.33;196372.00;0.65;339.68;;;;;9.00;1.00;;;;;;2268302;61;1578;-89
2022/03/03 01:07:59;2072097.00;6.91;3773.43;150091.00;0.50;259.96;;;;;8.50;1.00;;;;;;2268187;61;1998;-88
2022/03/03 01:10:29;1341691.00;4.47;2348.61;156283.00;0.52;270.63;;;;;8.10;1.00;;;;;;2268273;61;1509;-89
2022/03/03 01:12:59;895348.00;2.98;1547.95;100050.00;0.33;173.66;;;;;7.90;1.00;;;;;;2268213;61;1389;-90
2022/03/03 01:15:29;929159.00;3.10;1607.39;40617.00;0.14;70.96;;;;;8.60;1.00;;;;;;2268239;61;1772;-88
2022/03/03 01:17:59;840019.00;2.80;1451.01;0.00;0.00;0.62;;;;;9.00;1.00;;;;;;2268229;61;1377;-90
2022/03/03 01:20:27;826118.00;2.75;1426.71;0.00;0.00;0.62;;;;;8.60;1.00;;;;;;2268191;61;1537;-88
2022/03/03 01:22:55;729157.00;2.43;1257.84;0.00;0.00;0.62;;;;;7.90;1.00;;;;;;2268176;61;1435;-88
2022/03/03 01:25:26;755077.00;2.52;1302.89;40861.00;0.14;71.38;;;;;7.90;1.00;;;;;;2268232;61;1415;-88
2022/03/03 01:27:54;2734229.00;9.11;5257.08;183375.00;0.61;317.30;;;;;7.80;1.00;;;;;;2268172;61;1995;-89
2022/03/03 01:30:23;1654508.00;5.52;2937.37;65767.00;0.22;114.45;;;;;8.10;1.00;;;;;;2268213;61;1480;-88
2022/03/03 01:32:53;642687.00;2.14;1107.99;0.00;0.00;0.62;;;;;7.90;1.00;;;;;;2268212;61;1437;-89
2022/03/03 01:35:24;1415214.00;4.72;2484.57;157981.00;0.53;273.56;;;;;8.00;1.00;;;;;;2268135;61;1532;-89
2022/03/03 01:37:52;1528992.00;5.10;2697.79;177296.00;0.59;306.83;;;;;8.50;1.00;;;;;;2268274;61;1201;-89
2022/03/03 01:40:22;2406430.00;8.02;4495.00;211221.00;0.70;365.24;;;;;8.50;1.00;;;;;;2268194;61;1496;-88
2022/03/03 01:42:49;786993.00;2.62;1358.45;87413.00;0.29;151.84;;;;;8.40;1.00;;;;;;2267976;61;1617;-88
2022/03/03 01:45:18;724835.00;2.42;1250.33;0.00;0.00;0.62;;;;;8.30;1.00;;;;;;2268189;61;1642;-89
2022/03/03 01:47:47;974466.00;3.25;1687.30;0.00;0.00;0.62;;;;;7.60;1.00;;;;;;2268073;61;2006;-88
2022/03/03 01:50:17;922344.00;3.07;1595.40;0.00;0.00;0.62;;;;;6.90;1.00;;;;;;2268138;61;1594;-88
2022/03/03 01:52:49;842957.00;2.81;1456.15;0.00;0.00;0.62;;;;;6.60;1.00;;;;;;2268100;61;1514;-89
2022/03/03 01:55:17;1931828.00;6.44;3485.27;93302.00;0.31;162.01;;;;;7.00;1.00;;;;;;2268037;61;1691;-89
2022/03/03 01:57:44;2362156.00;7.87;4396.41;216050.00;0.72;373.55;;;;;7.70;1.00;;;;;;2268126;61;1456;-88
2022/03/03 02:00:15;1882155.00;6.27;3385.09;156112.00;0.52;270.34;;;;;8.20;1.00;;;;;;2268155;61;1587;-89
2022/03/03 02:02:43;984810.00;3.28;1705.59;14061.00;0.05;24.98;;;;;8.00;1.00;;;;;;2268047;61;1549;-88
2022/03/03 02:05:10;814969.00;2.72;1407.24;1099.00;0.00;2.52;;;;;7.50;1.00;;;;;;2268149;61;1559;-89
2022/03/03 02:07:37;745696.00;2.49;1286.57;0.00;0.00;0.62;;;;;7.00;1.00;;;;;;2268195;61;927;-88
2022/03/03 02:10:12;872683.00;2.91;1508.19;0.00;0.00;0.62;;;;;7.30;1.00;;;;;;2268166;61;1939;-88
2022/03/03 02:12:51;1261680.00;4.21;2202.14;94063.00;0.31;163.32;;;;;5.80;1.00;;;;;;2268108;61;1408;-88
2022/03/03 02:15:19;1338554.00;4.46;2342.84;92311.00;0.31;160.30;;;;;4.90;1.00;;;;;;2267886;61;1022;-87
2022/03/03 02:17:53;2699711.00;9.00;5174.03;244328.00;0.81;422.20;;;;;3.90;1.00;;;;;;2268032;61;1556;-87
2022/03/03 02:20:23;125497928.00;418.33;80078984.00;105311.00;0.35;182.74;;;;;3.90;1.00;;;;;;2268082;61;1369;-89
2022/03/03 02:25:34;679050.00;2.26;1170.93;0.00;0.00;0.62;;;;;4.30;1.00;;;;;;2268080;61;1347;-88
2022/03/03 02:28:03;854710.00;2.85;1476.71;0.00;0.00;0.62;;;;;4.50;1.00;;;;;;2268073;61;1991;-88
2022/03/03 02:30:30;866838.00;2.89;1497.95;57352.00;0.19;99.90;;;;;4.60;1.00;;;;;;2268017;61;1549;-85
2022/03/03 02:35:34;404733.00;1.35;697.94;0.00;0.00;0.62;;;;;5.40;1.00;;;;;;1507454;40;3225;-90
2022/03/03 02:40:39;1749848.00;5.83;3122.69;26517.00;0.09;46.55;;;;;6.60;1.00;;;;;;2269473;61;1420;-89
2022/03/03 02:43:06;1581935.00;5.27;2798.26;0.00;0.00;0.62;;;;;6.10;1.00;;;;;;2267928;61;1461;-88
2022/03/03 02:45:37;1267655.00;4.23;2213.03;0.00;0.00;0.62;;;;;5.70;1.00;;;;;;2267849;61;2165;-86
2022/03/03 02:48:04;1275218.00;4.25;2226.82;0.00;0.00;0.62;;;;;5.30;1.00;;;;;;2263320;61;2025;-88
2022/03/03 02:50:32;901183.00;3.00;1558.20;0.00;0.00;0.62;;;;;5.70;1.00;;;;;;2263030;61;1136;-87
2022/03/03 02:53:02;859701.00;2.87;1485.45;0.00;0.00;0.62;;;;;6.60;1.00;;;;;;2263664;61;1265;-87
2022/03/03 02:55:29;851055.00;2.84;1470.31;0.00;0.00;0.62;;;;;7.00;1.00;;;;;;2263765;61;1153;-87
2022/03/03 02:58:02;825838.00;2.75;1426.22;0.00;0.00;0.62;;;;;7.40;1.00;;;;;;2263816;61;1045;-86
2022/03/03 03:00:39;1045463.00;3.48;1813.16;0.00;0.00;0.62;;;;;7.70;1.00;;;;;;2263596;61;1517;-84
2022/03/03 03:03:06;851355.00;2.84;1470.84;0.00;0.00;0.62;;;;;7.70;1.00;;;;;;2264429;61;1500;-84
2022/03/03 03:05:35;994533.00;3.32;1722.79;0.00;0.00;0.62;;;;;7.80;1.00;;;;;;2264155;61;1797;-86
2022/03/03 03:08:04;950005.00;3.17;1644.12;0.00;0.00;0.62;;;;;8.00;1.00;;;;;;2264790;61;1919;-86
2022/03/03 03:10:31;886042.00;2.95;1531.62;0.00;0.00;0.62;;;;;7.90;1.00;;;;;;2264962;61;1113;-86
2022/03/03 03:12:58;733969.00;2.45;1266.20;0.00;0.00;0.62;;;;;8.20;1.00;;;;;;2264966;61;1369;-86
2022/03/03 03:15:26;775723.00;2.59;1338.82;0.00;0.00;0.62;;;;;8.30;1.00;;;;;;2265409;61;1082;-85
2022/03/03 03:17:53;853920.00;2.85;1475.33;0.00;0.00;0.62;;;;;7.80;1.00;;;;;;2265128;61;1523;-86
2022/03/03 03:20:24;964305.00;3.21;1669.35;0.00;0.00;0.62;;;;;7.40;1.00;;;;;;2265400;61;1143;-85
2022/03/03 03:22:53;716371.00;2.39;1235.64;0.00;0.00;0.62;;;;;6.80;1.00;;;;;;2265161;61;1468;-86
2022/03/03 03:25:20;1009002.00;3.36;1748.42;29048.00;0.10;50.94;;;;;6.40;1.00;;;;;;2264850;61;1385;-86
2022/03/03 03:27:47;902229.00;3.01;1560.04;0.00;0.00;0.62;;;;;6.10;1.00;;;;;;2264687;61;1139;-85
2022/03/03 03:30:19;719623.00;2.40;1241.28;0.00;0.00;0.62;;;;;7.20;1.00;;;;;;2264891;61;1993;-85
2022/03/03 03:32:46;905602.00;3.02;1565.96;0.00;0.00;0.62;;;;;7.90;1.00;;;;;;2265057;61;1463;-86
2022/03/03 03:35:13;118092536.00;393.64;66711816.00;0.00;0.00;0.62;;;;;8.20;1.00;;;;;;2264946;61;1475;-86
2022/03/03 03:37:41;755858.00;2.52;1304.24;0.00;0.00;0.62;;;;;8.20;1.00;;;;;;2264942;61;1091;-86
2022/03/03 03:40:13;707989.00;2.36;1221.10;33832.00;0.11;59.22;;;;;7.90;1.00;;;;;;2265056;61;1209;-86
2022/03/03 03:42:44;810294.00;2.70;1399.08;0.00;0.00;0.62;;;;;8.20;1.00;;;;;;2264925;61;1455;-86
2022/03/03 03:45:23;914440.00;3.05;1581.50;0.00;0.00;0.62;;;;;8.60;1.00;;;;;;2264818;61;1676;-86
2022/03/03 03:47:56;790310.00;2.63;1364.23;0.00;0.00;0.62;;;;;8.80;1.00;;;;;;2264932;61;1514;-86
2022/03/03 03:50:28;982648.00;3.28;1701.76;14287.00;0.05;25.38;;;;;8.70;1.00;;;;;;2265165;61;1947;-85
2022/03/03 03:52:57;561958.00;1.87;968.58;0.00;0.00;0.62;;;;;8.70;1.00;;;;;;2264924;61;1380;-86
2022/03/03 03:55:30;766172.00;2.55;1322.19;0.00;0.00;0.62;;;;;8.60;1.00;;;;;;2265184;61;1130;-86
2022/03/03 03:58:00;1027538.00;3.43;1781.31;15892.00;0.05;28.16;;;;;8.50;1.00;;;;;;2264924;61;1447;-86
2022/03/03 04:00:35;999968.00;3.33;1732.42;26574.00;0.09;46.65;;;;;8.10;1.00;;;;;;2264832;61;1588;-85
2022/03/03 04:03:04;126054112.00;420.18;81149432.00;0.00;0.00;0.62;;;;;8.30;1.00;;;;;;2265200;61;2280;-86
2022/03/03 04:05:34;674216.00;2.25;1162.55;0.00;0.00;0.62;;;;;8.10;1.00;;;;;;2265176;61;1108;-85
2022/03/03 04:08:01;855328.00;2.85;1477.79;0.00;0.00;0.62;;;;;7.50;1.00;;;;;;2265128;61;1506;-86
2022/03/03 04:10:32;854403.00;2.85;1476.17;15637.00;0.05;27.71;;;;;7.70;1.00;;;;;;2265135;61;1959;-86
2022/03/03 04:12:59;667308.00;2.22;1150.59;0.00;0.00;0.62;;;;;7.80;1.00;;;;;;2265254;61;1428;-85
2022/03/03 04:15:28;712358.00;2.37;1228.68;6807.00;0.02;12.42;;;;;7.80;1.00;;;;;;2264709;61;1719;-85
2022/03/03 04:17:57;934841.00;3.12;1617.40;0.00;0.00;0.62;;;;;7.50;1.00;;;;;;2264989;61;1055;-87
2022/03/03 04:20:27;1072529.00;3.58;1861.37;0.00;0.00;0.62;;;;;7.10;1.00;;;;;;2264457;61;1764;-86
2022/03/03 04:22:56;748198.00;2.49;1290.92;0.00;0.00;0.62;;;;;7.20;1.00;;;;;;2264213;61;1464;-86
2022/03/03 04:25:27;791619.00;2.64;1366.51;0.00;0.00;0.62;;;;;7.40;1.00;;;;;;2264593;61;1817;-86
2022/03/03 04:27:58;1050132.00;3.50;1821.47;38456.00;0.13;67.22;;;;;6.60;1.00;;;;;;2264762;61;1456;-85
2022/03/03 04:30:26;1126598.00;3.76;1958.06;104855.00;0.35;181.95;;;;;6.30;1.00;;;;;;2264658;61;2017;-86
2022/03/03 04:32:53;1020288.00;3.40;1768.44;70045.00;0.23;121.84;;;;;7.00;1.00;;;;;;2264634;61;1471;-86
2022/03/03 04:35:23;973508.00;3.25;1685.61;97392.00;0.32;169.07;;;;;7.60;1.00;;;;;;2265033;61;1737;-87
2022/03/03 04:37:57;813358.00;2.71;1404.43;90386.00;0.30;156.97;;;;;8.20;1.00;;;;;;2264831;61;1132;-86
2022/03/03 04:40:25;841852.00;2.81;1454.21;82944.00;0.28;144.12;;;;;8.30;1.00;;;;;;2264871;61;1224;-86
2022/03/03 04:42:52;1177574.00;3.93;2049.73;182157.00;0.61;315.20;;;;;8.40;1.00;;;;;;2268393;61;1599;-87
2022/03/03 04:45:21;1023488.00;3.41;1774.12;70440.00;0.23;122.52;;;;;8.40;1.00;;;;;;2268361;61;1107;-90
2022/03/03 04:47:52;1044142.00;3.48;1810.81;99934.00;0.33;173.46;;;;;8.50;1.00;;;;;;2266435;61;1623;-86
2022/03/03 04:50:25;889225.00;2.96;1537.20;133514.00;0.45;231.39;;;;;8.20;1.00;;;;;;2264411;61;2032;-86
2022/03/03 04:53:02;1354797.00;4.52;2372.75;99248.00;0.33;172.27;;;;;7.80;1.00;;;;;;2263948;61;1562;-86
2022/03/03 04:55:33;1534673.00;5.12;2708.53;70994.00;0.24;123.48;;;;;7.40;1.00;;;;;;2263680;61;2199;-86
2022/03/03 04:58:02;1158485.00;3.86;2015.34;9277.00;0.03;16.70;;;;;8.10;1.00;;;;;;2263614;61;1490;-86
2022/03/03 05:00:30;994672.00;3.32;1723.04;0.00;0.00;0.62;;;;;8.70;1.00;;;;;;2263605;61;1346;-86
2022/03/03 05:03:00;1020363.00;3.40;1768.57;58911.00;0.20;102.59;;;;;8.70;1.00;;;;;;2262738;61;1553;-86
2022/03/03 05:05:28;1342746.00;4.48;2350.55;0.00;0.00;0.62;;;;;8.80;1.00;;;;;;2263791;61;1570;-86
2022/03/03 05:07:55;1271157.00;4.24;2219.42;77067.00;0.26;133.97;;;;;8.50;1.00;;;;;;2263362;61;1445;-86
2022/03/03 05:10:27;1276981.00;4.26;2230.04;0.00;0.00;0.62;;;;;8.50;1.00;;;;;;2263610;61;1926;-86
2022/03/03 05:13:06;1246667.00;4.16;2174.83;0.00;0.00;0.62;;;;;8.50;1.00;;;;;;2263595;61;1281;-86
2022/03/03 05:18:21;459054.00;1.53;791.36;0.00;0.00;0.62;;;;;7.80;1.00;;;;;;2263140;61;1455;-86
2022/03/03 05:20:51;810052.00;2.70;1398.66;0.00;0.00;0.62;;;;;7.70;1.00;;;;;;2263318;61;1693;-86
2022/03/03 05:23:21;120065464.00;400.22;70114720.00;0.00;0.00;0.62;;;;;8.20;1.00;;;;;;2263363;61;1364;-86
2022/03/03 05:25:53;797395.00;2.66;1376.58;0.00;0.00;0.62;;;;;7.60;1.00;;;;;;2263657;61;1115;-86
2022/03/03 05:28:23;698124.00;2.33;1203.99;0.00;0.00;0.62;;;;;6.60;1.00;;;;;;2263501;61;1441;-86
2022/03/03 05:30:52;677004.00;2.26;1167.38;0.00;0.00;0.62;;;;;6.00;1.00;;;;;;2263529;61;2002;-86
2022/03/03 05:33:20;774836.00;2.58;1337.27;0.00;0.00;0.62;;;;;6.30;1.00;;;;;;2263602;61;1389;-86
2022/03/03 05:35:49;828512.00;2.76;1430.89;0.00;0.00;0.62;;;;;6.90;1.00;;;;;;2264294;61;1663;-86
2022/03/03 05:38:17;890650.00;2.97;1539.70;0.00;0.00;0.62;;;;;7.10;1.00;;;;;;2263642;61;1592;-86
2022/03/03 05:40:49;919013.00;3.06;1589.54;0.00;0.00;0.62;;;;;7.00;1.00;;;;;;2263284;61;1729;-86
2022/03/03 05:43:19;713439.00;2.38;1230.55;0.00;0.00;0.62;;;;;7.50;1.00;;;;;;2263104;61;1771;-86
2022/03/03 05:45:47;767657.00;2.56;1324.77;0.00;0.00;0.62;;;;;7.60;1.00;;;;;;2263228;61;1458;-86
2022/03/03 05:48:25;834777.00;2.78;1441.84;0.00;0.00;0.62;;;;;7.40;1.00;;;;;;2263682;61;1413;-86
2022/03/03 05:50:55;548883.00;1.83;946.03;0.00;0.00;0.62;;;;;6.70;1.00;;;;;;2263412;61;1971;-86
2022/03/03 05:53:27;797255.00;2.66;1376.34;74333.00;0.25;129.25;;;;;6.30;1.00;;;;;;2264189;61;1607;-85
2022/03/03 05:56:03;928967.00;3.10;1607.05;54936.00;0.18;95.72;;;;;5.70;1.00;;;;;;2263989;61;1011;-86
2022/03/03 05:58:44;949961.00;3.17;1644.04;0.00;0.00;0.62;;;;;5.00;1.00;;;;;;2263790;61;1615;-86
2022/03/03 06:01:15;836679.00;2.79;1445.17;0.00;0.00;0.62;;;;;4.60;1.00;;;;;;2263580;61;1871;-86
2022/03/03 06:03:50;936227.00;3.12;1619.84;0.00;0.00;0.62;;;;;4.30;1.00;;;;;;2264249;61;1736;-85
2022/03/03 06:06:21;758288.00;2.53;1308.47;0.00;0.00;0.62;;;;;4.40;1.00;;;;;;2263992;61;1487;-86
2022/03/03 06:09:02;879153.00;2.93;1519.53;0.00;0.00;0.62;;;;;3.90;1.00;;;;;;2264197;61;1643;-86
2022/03/03 06:11:30;875583.00;2.92;1513.28;0.00;0.00;0.62;;;;;4.00;1.00;;;;;;2263497;61;1543;-85
2022/03/03 06:14:06;1349523.00;4.50;2363.03;0.00;0.00;0.62;;;;;3.80;1.00;;;;;;2263395;61;1486;-86
2022/03/03 06:16:34;1046408.00;3.49;1814.84;51340.00;0.17;89.50;;;;;3.70;1.00;;;;;;2263941;61;1075;-86
2022/03/03 06:19:06;963677.00;3.21;1668.24;74814.00;0.25;130.08;;;;;3.30;1.00;;;;;;2263877;61;1780;-86
2022/03/03 06:21:37;980953.00;3.27;1698.77;0.00;0.00;0.62;;;;;3.70;1.00;;;;;;2263594;61;1130;-86
2022/03/03 06:24:08;1242972.00;4.14;2168.11;100260.00;0.33;174.02;;;;;3.70;1.00;;;;;;2263127;61;1580;-86
2022/03/03 06:26:37;946284.00;3.15;1637.56;95511.00;0.32;165.82;;;;;3.70;1.00;;;;;;2263321;61;1806;-87
2022/03/03 06:29:06;829104.00;2.76;1431.93;88611.00;0.30;153.91;;;;;3.90;1.00;;;;;;2263901;61;1947;-86
2022/03/03 06:31:34;1140564.00;3.80;1983.12;96173.00;0.32;166.97;;;;;4.00;1.00;;;;;;2264365;61;1500;-85
2022/03/03 06:34:07;1555563.00;5.19;2748.11;101345.00;0.34;175.89;;;;;4.10;1.00;;;;;;2263800;61;1719;-86
2022/03/03 06:36:48;1010220.00;3.37;1750.58;96891.00;0.32;168.21;;;;;4.20;1.00;;;;;;2264084;61;1061;-85
2022/03/03 06:39:20;132301704.00;441.01;93836648.00;103729.00;0.35;180.01;;;;;4.30;1.00;;;;;;2263529;61;2153;-85
2022/03/03 06:41:53;1278248.00;4.26;2232.35;16584.00;0.06;29.35;;;;;4.90;1.00;;;;;;2264226;61;2234;-86
2022/03/03 06:44:23;1007495.00;3.36;1745.75;0.00;0.00;0.62;;;;;5.50;1.00;;;;;;2265117;61;1214;-86
2022/03/03 06:46:54;1679426.00;5.60;2985.52;120881.00;0.40;209.60;;;;;4.90;1.00;;;;;;2265007;61;1602;-86
2022/03/03 06:49:39;1233736.00;4.11;2151.34;14230.00;0.05;25.28;;;;;4.40;1.00;;;;;;2265263;61;1951;-86
2022/03/03 06:52:17;878012.00;2.93;1517.53;0.00;0.00;0.62;;;;;4.90;1.00;;;;;;2265189;61;1456;-86
2022/03/03 06:54:54;1046775.00;3.49;1815.49;0.00;0.00;0.62;;;;;6.20;1.00;;;;;;2265792;61;1736;-86
2022/03/03 06:57:26;873548.00;2.91;1509.71;0.00;0.00;0.62;;;;;6.60;1.00;;;;;;2266259;61;1044;-86
2022/03/03 07:00:11;122686520.00;408.96;74812056.00;0.00;0.00;0.62;;;;;7.00;1.00;;;;;;2266232;61;2135;-86
2022/03/03 07:02:50;930013.00;3.10;1608.89;0.00;0.00;0.62;;;;;7.10;1.00;;;;;;2266217;61;1512;-87
2022/03/03 07:05:25;881573.00;2.94;1523.78;14575.00;0.05;25.87;;;;;7.20;1.00;;;;;;2268679;61;1511;-88
2022/03/03 07:08:12;790625.00;2.64;1364.78;0.00;0.00;0.62;;;;;7.00;1.00;;;;;;2268746;61;1149;-88
2022/03/03 07:10:51;958735.00;3.20;1659.52;0.00;0.00;0.62;;;;;7.20;1.00;;;;;;2268680;61;2000;-89
2022/03/03 07:13:26;129924440.00;433.08;88863888.00;9915.00;0.03;17.80;;;;;7.20;1.00;;;;;;2268589;61;1503;-88
2022/03/03 07:16:11;1209044.00;4.03;2106.58;126680.00;0.42;219.60;;;;;7.00;1.00;;;;;;2268716;61;1085;-88
2022/03/03 07:19:07;1091755.00;3.64;1895.69;95796.00;0.32;166.31;;;;;6.40;1.00;;;;;;2267318;61;1556;-87
2022/03/03 07:27:32;523245.00;1.74;901.85;0.00;0.00;0.62;;;;;9.00;1.00;;;;;;2268125;61;1271;-87
2022/03/03 07:30:44;131060352.00;436.87;91217464.00;23480.00;0.08;41.30;;;;;9.40;1.00;;;;;;2268121;61;1996;-86
2022/03/03 07:33:34;843906.00;2.81;1457.81;6148.00;0.02;11.27;;;;;9.80;1.00;;;;;;2267950;61;1547;-86
2022/03/03 07:39:18;1419543.00;4.73;2492.62;62639.00;0.21;109.04;;;;;9.60;1.00;;;;;;2267354;61;1368;-86
2022/03/03 07:41:54;1426648.00;4.76;2505.84;0.00;0.00;0.62;;;;;8.70;1.00;;;;;;2267354;61;1467;-86
2022/03/03 07:44:39;1399754.00;4.67;2455.87;33715.00;0.11;59.01;;;;;7.60;1.00;;;;;;2267545;61;1577;-86
2022/03/03 07:47:10;856037.00;2.85;1479.03;41724.00;0.14;72.87;;;;;7.10;1.00;;;;;;2267530;61;1747;-85
2022/03/03 07:49:45;1073276.00;3.58;1862.70;75415.00;0.25;131.12;;;;;7.20;1.00;;;;;;2266680;61;2030;-87
2022/03/03 07:52:19;1323753.00;4.41;2315.64;79204.00;0.26;137.66;;;;;7.00;1.00;;;;;;2266094;61;1726;-87
2022/03/03 07:54:51;761616.00;2.54;1314.26;0.00;0.00;0.62;;;;;6.90;1.00;;;;;;2266535;61;1551;-86
2022/03/03 07:57:23;1058596.00;3.53;1836.53;0.00;0.00;0.62;;;;;6.50;1.00;;;;;;2266614;61;1049;-87
2022/03/03 08:00:02;647880.00;2.16;1116.97;0.00;0.00;0.62;;;;;6.80;1.00;;;;;;2266641;61;1559;-86
2022/03/03 08:02:46;926619.00;3.09;1602.92;26904.00;0.09;47.22;;;;;7.00;1.00;;;;;;2266308;61;1573;-86
2022/03/03 08:05:27;792607.00;2.64;1368.23;0.00;0.00;0.62;;;;;7.20;1.00;;;;;;2268529;61;1401;-89
2022/03/03 08:07:57;1095175.00;3.65;1901.80;0.00;0.00;0.62;;;;;7.10;1.00;;;;;;2268430;61;1506;-88
2022/03/03 08:10:40;820033.00;2.73;1416.08;0.00;0.00;0.62;;;;;6.90;1.00;;;;;;2268546;61;1927;-88
2022/03/03 08:13:20;770370.00;2.57;1329.50;0.00;0.00;0.62;;;;;7.10;1.00;;;;;;2268521;61;1384;-88
2022/03/03 08:18:43;909680.00;3.03;1573.13;0.00;0.00;0.62;;;;;7.80;1.00;;;;;;2266346;61;924;-87
2022/03/03 08:21:17;1033387.00;3.44;1791.69;78020.00;0.26;135.62;;;;;8.30;1.00;;;;;;2267434;61;1144;-87
2022/03/03 08:23:53;1265693.00;4.22;2209.46;96793.00;0.32;168.04;;;;;8.20;1.00;;;;;;2267228;61;1323;-87
2022/03/03 08:26:31;127519256.00;425.06;84014896.00;91537.00;0.31;158.96;;;;;8.60;1.00;;;;;;2267300;61;1779;-89
2022/03/03 08:29:08;129621200.00;432.07;88242544.00;40839.00;0.14;71.34;;;;;8.80;1.00;;;;;;2268412;61;1085;-87
2022/03/03 08:31:45;1126454.00;3.75;1957.80;40222.00;0.13;70.27;;;;;8.80;1.00;;;;;;2268376;61;1920;-89
2022/03/03 08:34:48;1071387.00;3.57;1859.33;0.00;0.00;0.62;;;;;8.80;1.00;;;;;;2267655;61;1541;-87
2022/03/03 08:37:30;941666.00;3.14;1629.42;0.00;0.00;0.62;;;;;8.90;1.00;;;;;;2268031;61;1753;-87
2022/03/03 08:40:09;896098.00;2.99;1549.27;0.00;0.00;0.62;;;;;9.10;1.00;;;;;;2267638;61;1554;-88
2022/03/03 08:42:56;886132.00;2.95;1531.78;0.00;0.00;0.62;;;;;8.90;1.00;;;;;;2267986;61;1302;-88
2022/03/03 08:45:32;680761.00;2.27;1173.89;0.00;0.00;0.62;;;;;8.70;1.00;;;;;;2268095;61;1577;-87
2022/03/03 08:48:02;908604.00;3.03;1571.24;0.00;0.00;0.62;;;;;9.10;1.00;;;;;;2268238;61;1383;-86
2022/03/03 08:50:53;824892.00;2.75;1424.57;0.00;0.00;0.62;;;;;9.00;1.00;;;;;;2268303;61;1914;-88
2022/03/03 08:53:28;804863.00;2.68;1389.61;0.00;0.00;0.62;;;;;9.00;1.00;;;;;;2268203;61;1266;-86
2022/03/03 08:56:00;889933.00;2.97;1538.45;0.00;0.00;0.62;;;;;9.50;1.00;;;;;;2268193;61;1380;-88
2022/03/03 08:58:31;1139081.00;3.80;1980.46;112112.00;0.37;194.47;;;;;9.60;1.00;;;;;;2267998;61;1469;-87
2022/03/03 09:01:00;869084.00;2.90;1501.88;92819.00;0.31;161.18;;;;;9.80;1.00;;;;;;2268081;61;1453;-87
2022/03/03 09:03:30;1112513.00;3.71;1932.82;158915.00;0.53;275.17;;;;;9.50;1.00;;;;;;2267884;61;2255;-87
2022/03/03 09:06:09;949989.00;3.17;1644.09;100224.00;0.33;173.96;;;;;9.30;1.00;;;;;;2267915;61;1371;-87
2022/03/03 09:09:11;1526358.00;5.09;2692.82;201280.00;0.67;348.13;;;;;9.50;1.00;;;;;;2268194;61;1538;-87
2022/03/03 09:11:59;1203060.00;4.01;2095.75;0.00;0.00;0.62;;;;;9.70;1.00;;;;;;2267978;61;2006;-85
2022/03/03 09:14:42;5494963.00;18.32;15009.97;1051466.00;3.50;1823.84;;;;;9.80;1.00;;;;;;2268159;61;1537;-87
2022/03/03 09:20:02;657063.00;2.19;1132.86;0.00;0.00;0.62;;;;;9.70;1.00;;;;;;2259097;61;1199;-86
2022/03/03 09:22:48;807011.00;2.69;1393.35;0.00;0.00;0.62;;;;;9.60;1.00;;;;;;2267730;61;1566;-86
2022/03/03 09:28:46;1842054.00;6.14;3304.89;176988.00;0.59;306.30;;;;;9.50;1.00;;;;;;2267743;61;1109;-86
2022/03/03 09:31:53;929547.00;3.10;1608.07;11135.00;0.04;19.92;;;;;9.60;1.00;;;;;;2267913;61;2012;-87
2022/03/03 09:34:28;855707.00;2.85;1478.46;0.00;0.00;0.62;;;;;9.60;1.00;;;;;;2267972;61;1814;-87
2022/03/03 09:37:01;810184.00;2.70;1398.89;0.00;0.00;0.62;;;;;9.10;1.00;;;;;;2267912;61;1532;-87
2022/03/03 09:39:46;834548.00;2.78;1441.44;0.00;0.00;0.62;;;;;8.90;1.00;;;;;;2267718;61;1654;-87
2022/03/03 09:42:33;795725.00;2.65;1373.67;36497.00;0.12;63.83;;;;;8.70;1.00;;;;;;2267606;61;1478;-87
2022/03/03 09:45:10;701633.00;2.34;1210.07;0.00;0.00;0.62;;;;;8.70;1.00;;;;;;2267832;61;1479;-87
2022/03/03 09:48:05;914229.00;3.05;1581.12;97088.00;0.32;168.55;;;;;8.50;1.00;;;;;;2268025;61;1123;-86
2022/03/03 09:50:43;1110020.00;3.70;1928.35;8509.00;0.03;15.37;;;;;8.40;1.00;;;;;;2267871;61;2029;-86
2022/03/03 09:53:26;1445689.00;4.82;2541.33;48415.00;0.16;84.44;;;;;8.70;1.00;;;;;;2267860;61;1602;-87
2022/03/03 09:56:08;694636.00;2.32;1197.94;0.00;0.00;0.62;;;;;9.00;1.00;;;;;;2268055;61;1594;-87
2022/03/03 09:58:59;1392218.00;4.64;2441.90;23281.00;0.08;40.95;;;;;8.90;1.00;;;;;;2268188;61;1396;-89
2022/03/03 10:01:41;959067.00;3.20;1660.11;0.00;0.00;0.62;;;;;9.30;1.00;;;;;;2268125;61;1583;-88
2022/03/03 10:04:33;859831.00;2.87;1485.68;8510.00;0.03;15.37;;;;;9.90;1.00;;;;;;2268233;61;1455;-87
2022/03/03 10:07:08;1288056.00;4.29;2250.26;112086.00;0.37;194.43;;;;;10.40;1.00;;;;;;2268137;61;1613;-88
2022/03/03 10:12:53;1263761.00;4.21;2205.94;159246.00;0.53;275.74;;;;;9.10;1.00;;;;;;2267881;61;1934;-87
2022/03/03 10:15:37;1061066.00;3.54;1840.93;18032.00;0.06;31.86;;;;;8.90;1.00;;;;;;2267809;61;1151;-86
2022/03/03 10:18:15;844392.00;2.81;1458.66;0.00;0.00;0.62;;;;;9.10;1.00;;;;;;2267605;61;1720;-86
2022/03/03 10:21:13;916783.00;3.06;1585.62;0.00;0.00;0.62;;;;;9.30;1.00;;;;;;2267989;61;2106;-86
2022/03/03 10:23:46;655625.00;2.19;1130.37;0.00;0.00;0.62;;;;;9.60;1.00;;;;;;2267772;61;1407;-86
2022/03/03 10:26:48;1143149.00;3.81;1987.76;75207.00;0.25;130.76;;;;;10.10;1.00;;;;;;2267967;61;1457;-87
2022/03/03 10:29:29;935817.00;3.12;1619.12;0.00;0.00;0.62;;;;;9.80;1.00;;;;;;2267653;61;1593;-87
2022/03/03 10:34:43;133190248.00;443.97;95741936.00;56689.00;0.19;98.75;;;;;9.70;1.00;;;;;;2267374;61;1329;-87
2022/03/03 10:37:32;861792.00;2.87;1489.11;0.00;0.00;0.62;;;;;9.20;1.00;;;;;;2267312;61;1477;-87
2022/03/03 10:40:20;684991.00;2.28;1181.22;0.00;0.00;0.62;;;;;9.20;1.00;;;;;;2266875;61;1417;-86
2022/03/03 10:42:56;1000021.00;3.33;1732.51;100585.00;0.34;174.58;;;;;9.10;1.00;;;;;;2267062;61;1325;-87
2022/03/03 10:45:34;127482512.00;424.94;83942232.00;59584.00;0.20;103.76;;;;;8.90;1.00;;;;;;2267143;61;1079;-87